sensor_id;sensor_type;location;lat;lon;timestamp;P1;durP1;ratioP1;P2;durP2;ratioP2
15385;SDS011;7791;47.246;9.648;2023-04-25T00:02:04;6.47;;;4.40;;
15385;SDS011;7791;47.246;9.648;2023-04-25T00:04:37;6.37;;;4.43;;
15385;SDS011;7791;47.246;9.648;2023-04-25T00:07:06;5.37;;;4.10;;
15385;SDS011;7791;47.246;9.648;2023-04-25T00:09:49;5.93;;;4.17;;
15385;SDS011;7791;47.246;9.648;2023-04-25T00:12:24;6.30;;;4.30;;
15385;SDS011;7791;47.246;9.648;2023-04-25T00:14:55;7.00;;;4.53;;
15385;SDS011;7791;47.246;9.648;2023-04-25T00:17:35;6.17;;;4.03;;
15385;SDS011;7791;47.246;9.648;2023-04-25T00:20:06;6.33;;;4.60;;
15385;SDS011;7791;47.246;9.648;2023-04-25T00:22:40;6.47;;;4.27;;
15385;SDS011;7791;47.246;9.648;2023-04-25T00:25:10;5.57;;;3.90;;
15385;SDS011;7791;47.246;9.648;2023-04-25T00:27:52;7.17;;;4.40;;
15385;SDS011;7791;47.246;9.648;2023-04-25T00:30:34;6.17;;;3.73;;
15385;SDS011;7791;47.246;9.648;2023-04-25T00:33:06;5.90;;;4.67;;
15385;SDS011;7791;47.246;9.648;2023-04-25T00:35:39;9.30;;;4.90;;
15385;SDS011;7791;47.246;9.648;2023-04-25T00:38:20;7.30;;;5.07;;
15385;SDS011;7791;47.246;9.648;2023-04-25T00:40:56;5.93;;;4.33;;
15385;SDS011;7791;47.246;9.648;2023-04-25T00:43:31;7.93;;;4.63;;
15385;SDS011;7791;47.246;9.648;2023-04-25T00:46:00;12.93;;;4.50;;
15385;SDS011;7791;47.246;9.648;2023-04-25T00:48:43;6.50;;;4.60;;
15385;SDS011;7791;47.246;9.648;2023-04-25T00:51:13;7.50;;;4.53;;
15385;SDS011;7791;47.246;9.648;2023-04-25T00:53:46;6.23;;;4.47;;
15385;SDS011;7791;47.246;9.648;2023-04-25T00:56:18;8.00;;;4.77;;
15385;SDS011;7791;47.246;9.648;2023-04-25T00:58:59;6.40;;;4.20;;
15385;SDS011;7791;47.246;9.648;2023-04-25T01:01:31;6.90;;;4.67;;
15385;SDS011;7791;47.246;9.648;2023-04-25T01:04:14;7.30;;;5.30;;
15385;SDS011;7791;47.246;9.648;2023-04-25T01:06:46;9.23;;;4.63;;
15385;SDS011;7791;47.246;9.648;2023-04-25T01:09:30;9.80;;;5.03;;
15385;SDS011;7791;47.246;9.648;2023-04-25T01:12:01;10.63;;;5.47;;
15385;SDS011;7791;47.246;9.648;2023-04-25T01:14:45;8.83;;;5.30;;
15385;SDS011;7791;47.246;9.648;2023-04-25T01:17:22;8.07;;;5.50;;
15385;SDS011;7791;47.246;9.648;2023-04-25T01:20:01;10.27;;;6.17;;
15385;SDS011;7791;47.246;9.648;2023-04-25T01:22:37;8.63;;;6.37;;
15385;SDS011;7791;47.246;9.648;2023-04-25T01:25:13;9.47;;;6.60;;
15385;SDS011;7791;47.246;9.648;2023-04-25T01:27:49;9.10;;;5.90;;
15385;SDS011;7791;47.246;9.648;2023-04-25T01:30:33;8.40;;;5.77;;
15385;SDS011;7791;47.246;9.648;2023-04-25T01:33:09;10.37;;;5.30;;
15385;SDS011;7791;47.246;9.648;2023-04-25T01:35:52;10.23;;;5.87;;
15385;SDS011;7791;47.246;9.648;2023-04-25T01:38:28;7.03;;;5.07;;
15385;SDS011;7791;47.246;9.648;2023-04-25T01:40:56;7.83;;;5.40;;
15385;SDS011;7791;47.246;9.648;2023-04-25T01:43:32;7.60;;;5.60;;
15385;SDS011;7791;47.246;9.648;2023-04-25T01:46:03;10.03;;;5.47;;
15385;SDS011;7791;47.246;9.648;2023-04-25T01:48:46;9.43;;;5.93;;
15385;SDS011;7791;47.246;9.648;2023-04-25T01:51:29;7.37;;;5.27;;
15385;SDS011;7791;47.246;9.648;2023-04-25T01:54:02;8.30;;;4.20;;
15385;SDS011;7791;47.246;9.648;2023-04-25T01:56:43;7.80;;;5.13;;
15385;SDS011;7791;47.246;9.648;2023-04-25T01:59:14;6.67;;;4.73;;
15385;SDS011;7791;47.246;9.648;2023-04-25T02:01:46;6.90;;;4.93;;
15385;SDS011;7791;47.246;9.648;2023-04-25T02:04:25;6.87;;;4.50;;
15385;SDS011;7791;47.246;9.648;2023-04-25T02:07:09;7.03;;;4.40;;
15385;SDS011;7791;47.246;9.648;2023-04-25T02:12:58;5.43;;;4.20;;
15385;SDS011;7791;47.246;9.648;2023-04-25T02:15:21;9.77;;;4.40;;
15385;SDS011;7791;47.246;9.648;2023-04-25T02:17:53;5.13;;;3.83;;
15385;SDS011;7791;47.246;9.648;2023-04-25T02:20:27;7.50;;;4.00;;
15385;SDS011;7791;47.246;9.648;2023-04-25T02:22:59;7.07;;;3.47;;
15385;SDS011;7791;47.246;9.648;2023-04-25T02:28:28;4.80;;;3.10;;
15385;SDS011;7791;47.246;9.648;2023-04-25T02:31:13;9.13;;;3.97;;
15385;SDS011;7791;47.246;9.648;2023-04-25T02:33:47;9.03;;;4.07;;
15385;SDS011;7791;47.246;9.648;2023-04-25T02:36:22;6.83;;;4.23;;
15385;SDS011;7791;47.246;9.648;2023-04-25T02:38:54;5.80;;;3.60;;
15385;SDS011;7791;47.246;9.648;2023-04-25T02:41:23;5.50;;;3.77;;
15385;SDS011;7791;47.246;9.648;2023-04-25T02:46:52;5.27;;;3.67;;
15385;SDS011;7791;47.246;9.648;2023-04-25T02:49:36;6.17;;;3.60;;
15385;SDS011;7791;47.246;9.648;2023-04-25T02:52:21;5.03;;;3.63;;
15385;SDS011;7791;47.246;9.648;2023-04-25T02:54:54;5.97;;;3.50;;
15385;SDS011;7791;47.246;9.648;2023-04-25T02:57:42;7.63;;;3.50;;
15385;SDS011;7791;47.246;9.648;2023-04-25T03:00:14;5.00;;;3.00;;
15385;SDS011;7791;47.246;9.648;2023-04-25T03:02:55;6.17;;;3.50;;
15385;SDS011;7791;47.246;9.648;2023-04-25T03:05:35;5.10;;;3.77;;
15385;SDS011;7791;47.246;9.648;2023-04-25T03:08:06;4.80;;;3.23;;
15385;SDS011;7791;47.246;9.648;2023-04-25T03:10:36;5.03;;;3.60;;
15385;SDS011;7791;47.246;9.648;2023-04-25T03:16:00;6.17;;;4.00;;
15385;SDS011;7791;47.246;9.648;2023-04-25T03:18:49;6.37;;;3.90;;
15385;SDS011;7791;47.246;9.648;2023-04-25T03:21:37;5.20;;;3.30;;
15385;SDS011;7791;47.246;9.648;2023-04-25T03:24:11;5.80;;;3.80;;
15385;SDS011;7791;47.246;9.648;2023-04-25T03:26:39;8.90;;;4.50;;
15385;SDS011;7791;47.246;9.648;2023-04-25T03:32:23;7.47;;;4.10;;
15385;SDS011;7791;47.246;9.648;2023-04-25T03:35:00;6.03;;;4.60;;
15385;SDS011;7791;47.246;9.648;2023-04-25T03:37:31;6.63;;;4.53;;
15385;SDS011;7791;47.246;9.648;2023-04-25T03:40:03;8.33;;;4.57;;
15385;SDS011;7791;47.246;9.648;2023-04-25T03:42:34;5.50;;;4.00;;
15385;SDS011;7791;47.246;9.648;2023-04-25T03:47:55;11.43;;;4.90;;
15385;SDS011;7791;47.246;9.648;2023-04-25T03:50:29;8.40;;;5.00;;
15385;SDS011;7791;47.246;9.648;2023-04-25T03:53:03;7.10;;;4.83;;
15385;SDS011;7791;47.246;9.648;2023-04-25T03:55:36;8.87;;;5.07;;
15385;SDS011;7791;47.246;9.648;2023-04-25T03:58:06;7.07;;;5.07;;
15385;SDS011;7791;47.246;9.648;2023-04-25T04:00:43;9.57;;;5.20;;
15385;SDS011;7791;47.246;9.648;2023-04-25T04:03:24;6.33;;;4.93;;
15385;SDS011;7791;47.246;9.648;2023-04-25T04:05:52;7.33;;;4.87;;
15385;SDS011;7791;47.246;9.648;2023-04-25T04:08:34;7.43;;;4.80;;
15385;SDS011;7791;47.246;9.648;2023-04-25T04:13:56;6.33;;;4.50;;
15385;SDS011;7791;47.246;9.648;2023-04-25T04:19:47;5.80;;;3.87;;
15385;SDS011;7791;47.246;9.648;2023-04-25T04:22:23;7.67;;;4.43;;
15385;SDS011;7791;47.246;9.648;2023-04-25T04:25:11;5.70;;;4.27;;
15385;SDS011;7791;47.246;9.648;2023-04-25T04:27:41;8.93;;;4.80;;
15385;SDS011;7791;47.246;9.648;2023-04-25T04:30:15;7.33;;;4.60;;
15385;SDS011;7791;47.246;9.648;2023-04-25T04:32:49;5.60;;;4.20;;
15385;SDS011;7791;47.246;9.648;2023-04-25T04:35:32;7.43;;;4.50;;
15385;SDS011;7791;47.246;9.648;2023-04-25T04:38:15;7.47;;;4.53;;
15385;SDS011;7791;47.246;9.648;2023-04-25T04:40:42;5.77;;;3.80;;
15385;SDS011;7791;47.246;9.648;2023-04-25T04:43:15;6.37;;;3.83;;
15385;SDS011;7791;47.246;9.648;2023-04-25T04:45:51;5.70;;;3.90;;
15385;SDS011;7791;47.246;9.648;2023-04-25T04:48:31;6.10;;;3.80;;
15385;SDS011;7791;47.246;9.648;2023-04-25T04:57:10;8.60;;;4.10;;
15385;SDS011;7791;47.246;9.648;2023-04-25T04:59:43;5.67;;;3.53;;
15385;SDS011;7791;47.246;9.648;2023-04-25T05:02:10;7.17;;;4.47;;
15385;SDS011;7791;47.246;9.648;2023-04-25T05:05:02;5.80;;;4.23;;
15385;SDS011;7791;47.246;9.648;2023-04-25T05:07:34;6.70;;;3.93;;
15385;SDS011;7791;47.246;9.648;2023-04-25T05:10:02;6.70;;;3.37;;
15385;SDS011;7791;47.246;9.648;2023-04-25T05:12:34;5.83;;;3.60;;
15385;SDS011;7791;47.246;9.648;2023-04-25T05:15:04;7.83;;;4.07;;
15385;SDS011;7791;47.246;9.648;2023-04-25T05:17:50;6.67;;;3.87;;
15385;SDS011;7791;47.246;9.648;2023-04-25T05:20:49;8.30;;;4.07;;
15385;SDS011;7791;47.246;9.648;2023-04-25T05:23:18;7.53;;;3.87;;
15385;SDS011;7791;47.246;9.648;2023-04-25T05:25:49;7.87;;;4.90;;
15385;SDS011;7791;47.246;9.648;2023-04-25T05:28:21;7.07;;;4.40;;
15385;SDS011;7791;47.246;9.648;2023-04-25T05:30:51;5.03;;;3.50;;
15385;SDS011;7791;47.246;9.648;2023-04-25T05:33:24;7.50;;;4.57;;
15385;SDS011;7791;47.246;9.648;2023-04-25T05:35:57;5.33;;;3.97;;
15385;SDS011;7791;47.246;9.648;2023-04-25T05:38:42;7.83;;;4.00;;
15385;SDS011;7791;47.246;9.648;2023-04-25T05:41:16;10.20;;;4.60;;
15385;SDS011;7791;47.246;9.648;2023-04-25T05:43:53;9.07;;;4.50;;
15385;SDS011;7791;47.246;9.648;2023-04-25T05:46:23;7.20;;;4.67;;
15385;SDS011;7791;47.246;9.648;2023-04-25T05:49:00;8.13;;;3.70;;
15385;SDS011;7791;47.246;9.648;2023-04-25T05:51:35;6.47;;;3.37;;
15385;SDS011;7791;47.246;9.648;2023-04-25T05:54:07;7.40;;;3.30;;
15385;SDS011;7791;47.246;9.648;2023-04-25T05:56:42;6.23;;;3.43;;
15385;SDS011;7791;47.246;9.648;2023-04-25T05:59:15;6.23;;;3.43;;
15385;SDS011;7791;47.246;9.648;2023-04-25T06:01:57;4.57;;;2.43;;
15385;SDS011;7791;47.246;9.648;2023-04-25T06:07:14;4.23;;;2.20;;
15385;SDS011;7791;47.246;9.648;2023-04-25T06:09:53;5.80;;;2.50;;
15385;SDS011;7791;47.246;9.648;2023-04-25T06:12:40;3.07;;;2.20;;
15385;SDS011;7791;47.246;9.648;2023-04-25T06:15:25;4.57;;;2.40;;
15385;SDS011;7791;47.246;9.648;2023-04-25T06:17:54;3.53;;;2.10;;
15385;SDS011;7791;47.246;9.648;2023-04-25T06:20:36;5.43;;;2.00;;
15385;SDS011;7791;47.246;9.648;2023-04-25T06:23:08;3.63;;;2.30;;
15385;SDS011;7791;47.246;9.648;2023-04-25T06:25:54;5.17;;;1.93;;
15385;SDS011;7791;47.246;9.648;2023-04-25T06:28:29;5.30;;;1.87;;
15385;SDS011;7791;47.246;9.648;2023-04-25T06:31:01;5.97;;;1.80;;
15385;SDS011;7791;47.246;9.648;2023-04-25T06:33:32;4.30;;;2.00;;
15385;SDS011;7791;47.246;9.648;2023-04-25T06:36:02;4.80;;;1.60;;
15385;SDS011;7791;47.246;9.648;2023-04-25T06:38:54;7.40;;;2.80;;
15385;SDS011;7791;47.246;9.648;2023-04-25T06:41:44;3.13;;;2.10;;
15385;SDS011;7791;47.246;9.648;2023-04-25T06:44:21;7.63;;;2.60;;
15385;SDS011;7791;47.246;9.648;2023-04-25T06:46:57;3.50;;;2.17;;
15385;SDS011;7791;47.246;9.648;2023-04-25T06:49:29;4.20;;;2.73;;
15385;SDS011;7791;47.246;9.648;2023-04-25T06:51:55;5.97;;;2.27;;
15385;SDS011;7791;47.246;9.648;2023-04-25T06:54:31;4.40;;;2.57;;
15385;SDS011;7791;47.246;9.648;2023-04-25T06:57:00;4.23;;;2.60;;
15385;SDS011;7791;47.246;9.648;2023-04-25T06:59:38;4.53;;;2.67;;
15385;SDS011;7791;47.246;9.648;2023-04-25T07:02:08;4.43;;;2.50;;
15385;SDS011;7791;47.246;9.648;2023-04-25T07:04:41;6.70;;;2.50;;
15385;SDS011;7791;47.246;9.648;2023-04-25T07:07:11;4.73;;;2.50;;
15385;SDS011;7791;47.246;9.648;2023-04-25T07:09:51;6.03;;;2.40;;
15385;SDS011;7791;47.246;9.648;2023-04-25T07:12:26;3.87;;;2.20;;
15385;SDS011;7791;47.246;9.648;2023-04-25T07:14:52;6.20;;;2.53;;
15385;SDS011;7791;47.246;9.648;2023-04-25T07:17:17;3.27;;;2.53;;
15385;SDS011;7791;47.246;9.648;2023-04-25T07:19:51;3.93;;;2.23;;
15385;SDS011;7791;47.246;9.648;2023-04-25T07:22:21;4.70;;;2.77;;
15385;SDS011;7791;47.246;9.648;2023-04-25T07:25:05;5.93;;;2.20;;
15385;SDS011;7791;47.246;9.648;2023-04-25T07:28:03;6.50;;;2.33;;
15385;SDS011;7791;47.246;9.648;2023-04-25T07:33:45;65.80;;;8.57;;
15385;SDS011;7791;47.246;9.648;2023-04-25T07:39:05;20.73;;;3.70;;
15385;SDS011;7791;47.246;9.648;2023-04-25T07:41:35;36.37;;;5.30;;
15385;SDS011;7791;47.246;9.648;2023-04-25T07:44:16;51.07;;;7.07;;
15385;SDS011;7791;47.246;9.648;2023-04-25T07:46:48;133.33;;;12.37;;
15385;SDS011;7791;47.246;9.648;2023-04-25T07:49:23;17.03;;;3.37;;
15385;SDS011;7791;47.246;9.648;2023-04-25T07:52:07;12.43;;;3.07;;
15385;SDS011;7791;47.246;9.648;2023-04-25T07:54:43;166.97;;;15.10;;
15385;SDS011;7791;47.246;9.648;2023-04-25T07:57:14;4.30;;;1.73;;
15385;SDS011;7791;47.246;9.648;2023-04-25T08:02:37;20.43;;;3.13;;
15385;SDS011;7791;47.246;9.648;2023-04-25T08:05:28;21.77;;;3.20;;
15385;SDS011;7791;47.246;9.648;2023-04-25T08:08:03;14.67;;;3.10;;
15385;SDS011;7791;47.246;9.648;2023-04-25T08:10:34;14.67;;;2.77;;
15385;SDS011;7791;47.246;9.648;2023-04-25T08:13:07;13.47;;;3.33;;
15385;SDS011;7791;47.246;9.648;2023-04-25T08:15:47;8.83;;;2.17;;
15385;SDS011;7791;47.246;9.648;2023-04-25T08:18:28;5.40;;;2.10;;
15385;SDS011;7791;47.246;9.648;2023-04-25T08:21:02;7.33;;;1.80;;
15385;SDS011;7791;47.246;9.648;2023-04-25T08:23:53;5.20;;;1.80;;
15385;SDS011;7791;47.246;9.648;2023-04-25T08:29:14;4.17;;;1.50;;
15385;SDS011;7791;47.246;9.648;2023-04-25T08:31:56;4.50;;;1.37;;
15385;SDS011;7791;47.246;9.648;2023-04-25T08:34:31;3.07;;;1.40;;
15385;SDS011;7791;47.246;9.648;2023-04-25T08:37:07;3.83;;;1.20;;
15385;SDS011;7791;47.246;9.648;2023-04-25T08:39:39;5.70;;;1.70;;
15385;SDS011;7791;47.246;9.648;2023-04-25T08:42:11;3.03;;;1.57;;
15385;SDS011;7791;47.246;9.648;2023-04-25T08:44:58;5.00;;;1.43;;
15385;SDS011;7791;47.246;9.648;2023-04-25T08:47:42;4.93;;;1.80;;
15385;SDS011;7791;47.246;9.648;2023-04-25T08:50:18;3.87;;;1.80;;
15385;SDS011;7791;47.246;9.648;2023-04-25T08:53:02;6.10;;;1.70;;
15385;SDS011;7791;47.246;9.648;2023-04-25T08:58:35;6.57;;;2.53;;
15385;SDS011;7791;47.246;9.648;2023-04-25T09:01:08;4.83;;;1.70;;
15385;SDS011;7791;47.246;9.648;2023-04-25T09:03:41;3.67;;;1.60;;
15385;SDS011;7791;47.246;9.648;2023-04-25T09:06:27;4.80;;;2.00;;
15385;SDS011;7791;47.246;9.648;2023-04-25T09:09:02;5.57;;;1.80;;
15385;SDS011;7791;47.246;9.648;2023-04-25T09:11:32;6.50;;;1.60;;
15385;SDS011;7791;47.246;9.648;2023-04-25T09:14:19;3.10;;;1.40;;
15385;SDS011;7791;47.246;9.648;2023-04-25T09:17:03;4.50;;;2.10;;
15385;SDS011;7791;47.246;9.648;2023-04-25T09:20:06;4.57;;;1.73;;
15385;SDS011;7791;47.246;9.648;2023-04-25T09:22:39;5.50;;;1.77;;
15385;SDS011;7791;47.246;9.648;2023-04-25T09:25:25;4.30;;;1.83;;
15385;SDS011;7791;47.246;9.648;2023-04-25T09:28:03;3.93;;;1.53;;
15385;SDS011;7791;47.246;9.648;2023-04-25T09:30:46;2.83;;;1.67;;
15385;SDS011;7791;47.246;9.648;2023-04-25T09:33:19;2.57;;;1.30;;
15385;SDS011;7791;47.246;9.648;2023-04-25T09:36:13;3.97;;;1.80;;
15385;SDS011;7791;47.246;9.648;2023-04-25T09:38:51;6.13;;;2.00;;
15385;SDS011;7791;47.246;9.648;2023-04-25T09:44:19;5.07;;;2.70;;
15385;SDS011;7791;47.246;9.648;2023-04-25T09:49:38;5.50;;;1.40;;
15385;SDS011;7791;47.246;9.648;2023-04-25T09:52:16;2.73;;;1.90;;
15385;SDS011;7791;47.246;9.648;2023-04-25T09:54:54;1.93;;;1.20;;
15385;SDS011;7791;47.246;9.648;2023-04-25T09:57:27;2.80;;;1.10;;
15385;SDS011;7791;47.246;9.648;2023-04-25T10:00:00;4.10;;;1.13;;
15385;SDS011;7791;47.246;9.648;2023-04-25T10:02:39;1.97;;;0.90;;
15385;SDS011;7791;47.246;9.648;2023-04-25T10:08:09;1.77;;;0.80;;
15385;SDS011;7791;47.246;9.648;2023-04-25T10:10:58;0.60;;;0.60;;
15385;SDS011;7791;47.246;9.648;2023-04-25T10:13:56;1.07;;;0.60;;
15385;SDS011;7791;47.246;9.648;2023-04-25T10:16:27;1.97;;;0.70;;
15385;SDS011;7791;47.246;9.648;2023-04-25T10:19:04;1.00;;;0.63;;
15385;SDS011;7791;47.246;9.648;2023-04-25T10:22:02;4.60;;;0.97;;
15385;SDS011;7791;47.246;9.648;2023-04-25T10:24:50;3.30;;;1.10;;
15385;SDS011;7791;47.246;9.648;2023-04-25T10:27:38;1.17;;;0.70;;
15385;SDS011;7791;47.246;9.648;2023-04-25T10:30:10;1.50;;;0.80;;
15385;SDS011;7791;47.246;9.648;2023-04-25T10:32:41;1.53;;;1.00;;
15385;SDS011;7791;47.246;9.648;2023-04-25T10:35:19;1.90;;;1.33;;
15385;SDS011;7791;47.246;9.648;2023-04-25T10:38:20;2.33;;;1.07;;
15385;SDS011;7791;47.246;9.648;2023-04-25T10:41:03;1.80;;;0.80;;
15385;SDS011;7791;47.246;9.648;2023-04-25T10:43:37;1.63;;;0.80;;
15385;SDS011;7791;47.246;9.648;2023-04-25T10:46:23;3.10;;;0.73;;
15385;SDS011;7791;47.246;9.648;2023-04-25T10:49:09;1.60;;;0.70;;
15385;SDS011;7791;47.246;9.648;2023-04-25T10:51:58;0.70;;;0.60;;
15385;SDS011;7791;47.246;9.648;2023-04-25T10:54:55;1.57;;;0.77;;
15385;SDS011;7791;47.246;9.648;2023-04-25T10:57:36;1.65;;;1.00;;
15385;SDS011;7791;47.246;9.648;2023-04-25T11:00:14;1.27;;;1.03;;
15385;SDS011;7791;47.246;9.648;2023-04-25T11:03:41;2.10;;;0.87;;
15385;SDS011;7791;47.246;9.648;2023-04-25T11:05:58;1.77;;;0.90;;
15385;SDS011;7791;47.246;9.648;2023-04-25T11:08:53;3.30;;;1.20;;
15385;SDS011;7791;47.246;9.648;2023-04-25T11:11:35;2.03;;;1.10;;
15385;SDS011;7791;47.246;9.648;2023-04-25T11:14:13;2.03;;;1.03;;
15385;SDS011;7791;47.246;9.648;2023-04-25T11:16:59;3.67;;;1.20;;
15385;SDS011;7791;47.246;9.648;2023-04-25T11:19:36;2.83;;;1.10;;
15385;SDS011;7791;47.246;9.648;2023-04-25T11:22:07;2.20;;;1.40;;
15385;SDS011;7791;47.246;9.648;2023-04-25T11:24:40;3.13;;;1.23;;
15385;SDS011;7791;47.246;9.648;2023-04-25T11:27:22;1.67;;;1.00;;
15385;SDS011;7791;47.246;9.648;2023-04-25T11:30:01;4.83;;;1.43;;
15385;SDS011;7791;47.246;9.648;2023-04-25T11:32:42;2.17;;;1.00;;
15385;SDS011;7791;47.246;9.648;2023-04-25T11:35:22;1.57;;;0.90;;
15385;SDS011;7791;47.246;9.648;2023-04-25T11:38:02;1.20;;;0.63;;
15385;SDS011;7791;47.246;9.648;2023-04-25T11:40:56;1.00;;;0.70;;
15385;SDS011;7791;47.246;9.648;2023-04-25T11:43:32;3.83;;;0.70;;
15385;SDS011;7791;47.246;9.648;2023-04-25T11:46:14;1.80;;;0.63;;
15385;SDS011;7791;47.246;9.648;2023-04-25T11:48:45;2.10;;;0.80;;
15385;SDS011;7791;47.246;9.648;2023-04-25T11:51:17;1.67;;;1.30;;
15385;SDS011;7791;47.246;9.648;2023-04-25T11:53:47;1.90;;;0.90;;
15385;SDS011;7791;47.246;9.648;2023-04-25T11:56:31;2.50;;;1.10;;
15385;SDS011;7791;47.246;9.648;2023-04-25T11:59:12;2.50;;;1.30;;
15385;SDS011;7791;47.246;9.648;2023-04-25T12:01:54;2.53;;;1.10;;
15385;SDS011;7791;47.246;9.648;2023-04-25T12:04:36;1.57;;;1.20;;
15385;SDS011;7791;47.246;9.648;2023-04-25T12:07:10;3.60;;;1.17;;
15385;SDS011;7791;47.246;9.648;2023-04-25T12:09:39;9.07;;;1.23;;
15385;SDS011;7791;47.246;9.648;2023-04-25T12:12:09;3.57;;;0.70;;
15385;SDS011;7791;47.246;9.648;2023-04-25T12:14:48;2.27;;;0.97;;
15385;SDS011;7791;47.246;9.648;2023-04-25T12:17:22;1.40;;;0.90;;
15385;SDS011;7791;47.246;9.648;2023-04-25T12:19:50;1.70;;;0.80;;
15385;SDS011;7791;47.246;9.648;2023-04-25T12:22:29;2.50;;;0.70;;
15385;SDS011;7791;47.246;9.648;2023-04-25T12:25:06;2.93;;;0.93;;
15385;SDS011;7791;47.246;9.648;2023-04-25T12:30:23;3.50;;;1.10;;
15385;SDS011;7791;47.246;9.648;2023-04-25T12:32:52;3.60;;;1.70;;
15385;SDS011;7791;47.246;9.648;2023-04-25T12:35:21;2.83;;;1.20;;
15385;SDS011;7791;47.246;9.648;2023-04-25T12:37:57;2.23;;;0.80;;
15385;SDS011;7791;47.246;9.648;2023-04-25T12:40:24;1.73;;;0.80;;
15385;SDS011;7791;47.246;9.648;2023-04-25T12:42:50;2.10;;;1.27;;
15385;SDS011;7791;47.246;9.648;2023-04-25T12:45:20;2.07;;;0.90;;
15385;SDS011;7791;47.246;9.648;2023-04-25T12:47:49;1.03;;;0.63;;
15385;SDS011;7791;47.246;9.648;2023-04-25T12:50:26;1.43;;;0.60;;
15385;SDS011;7791;47.246;9.648;2023-04-25T12:52:55;3.50;;;0.60;;
15385;SDS011;7791;47.246;9.648;2023-04-25T12:55:27;1.30;;;0.60;;
15385;SDS011;7791;47.246;9.648;2023-04-25T12:57:59;2.33;;;0.90;;
15385;SDS011;7791;47.246;9.648;2023-04-25T13:00:30;0.97;;;0.63;;
15385;SDS011;7791;47.246;9.648;2023-04-25T13:03:04;2.37;;;0.80;;
15385;SDS011;7791;47.246;9.648;2023-04-25T13:05:47;3.30;;;0.80;;
15385;SDS011;7791;47.246;9.648;2023-04-25T13:08:23;1.10;;;0.77;;
15385;SDS011;7791;47.246;9.648;2023-04-25T13:11:12;1.20;;;0.77;;
15385;SDS011;7791;47.246;9.648;2023-04-25T13:13:41;0.80;;;0.70;;
15385;SDS011;7791;47.246;9.648;2023-04-25T13:16:11;3.20;;;0.80;;
15385;SDS011;7791;47.246;9.648;2023-04-25T13:18:54;2.83;;;0.77;;
15385;SDS011;7791;47.246;9.648;2023-04-25T13:21:23;0.77;;;0.60;;
15385;SDS011;7791;47.246;9.648;2023-04-25T13:23:55;1.90;;;0.50;;
15385;SDS011;7791;47.246;9.648;2023-04-25T13:26:23;2.57;;;1.00;;
15385;SDS011;7791;47.246;9.648;2023-04-25T13:28:55;1.37;;;0.60;;
15385;SDS011;7791;47.246;9.648;2023-04-25T13:31:23;3.07;;;0.60;;
15385;SDS011;7791;47.246;9.648;2023-04-25T13:36:39;0.50;;;0.50;;
15385;SDS011;7791;47.246;9.648;2023-04-25T13:39:09;2.00;;;0.50;;
15385;SDS011;7791;47.246;9.648;2023-04-25T13:41:46;1.13;;;0.63;;
15385;SDS011;7791;47.246;9.648;2023-04-25T13:44:25;1.87;;;0.60;;
15385;SDS011;7791;47.246;9.648;2023-04-25T13:46:57;2.23;;;0.80;;
15385;SDS011;7791;47.246;9.648;2023-04-25T13:49:36;1.83;;;1.40;;
15385;SDS011;7791;47.246;9.648;2023-04-25T13:52:21;0.93;;;0.73;;
15385;SDS011;7791;47.246;9.648;2023-04-25T13:55:00;1.23;;;0.73;;
15385;SDS011;7791;47.246;9.648;2023-04-25T13:57:37;3.13;;;1.20;;
15385;SDS011;7791;47.246;9.648;2023-04-25T14:00:13;0.90;;;0.80;;
15385;SDS011;7791;47.246;9.648;2023-04-25T14:05:30;0.93;;;0.63;;
15385;SDS011;7791;47.246;9.648;2023-04-25T14:07:59;2.47;;;0.90;;
15385;SDS011;7791;47.246;9.648;2023-04-25T14:10:42;0.87;;;0.67;;
15385;SDS011;7791;47.246;9.648;2023-04-25T14:13:12;1.47;;;1.00;;
15385;SDS011;7791;47.246;9.648;2023-04-25T14:15:43;3.33;;;0.80;;
15385;SDS011;7791;47.246;9.648;2023-04-25T14:18:20;0.63;;;0.57;;
15385;SDS011;7791;47.246;9.648;2023-04-25T14:21:00;3.43;;;0.80;;
15385;SDS011;7791;47.246;9.648;2023-04-25T14:23:29;1.47;;;0.87;;
15385;SDS011;7791;47.246;9.648;2023-04-25T14:26:07;2.40;;;0.73;;
15385;SDS011;7791;47.246;9.648;2023-04-25T14:28:48;2.97;;;0.60;;
15385;SDS011;7791;47.246;9.648;2023-04-25T14:31:22;2.40;;;0.70;;
15385;SDS011;7791;47.246;9.648;2023-04-25T14:33:53;2.13;;;0.97;;
15385;SDS011;7791;47.246;9.648;2023-04-25T14:36:25;1.97;;;0.87;;
15385;SDS011;7791;47.246;9.648;2023-04-25T14:38:59;3.40;;;0.87;;
15385;SDS011;7791;47.246;9.648;2023-04-25T14:41:36;3.80;;;1.10;;
15385;SDS011;7791;47.246;9.648;2023-04-25T14:44:08;1.43;;;0.70;;
15385;SDS011;7791;47.246;9.648;2023-04-25T14:49:20;0.83;;;0.60;;
15385;SDS011;7791;47.246;9.648;2023-04-25T14:52:02;3.27;;;1.00;;
15385;SDS011;7791;47.246;9.648;2023-04-25T14:54:35;2.83;;;0.80;;
15385;SDS011;7791;47.246;9.648;2023-04-25T14:57:08;1.30;;;0.70;;
15385;SDS011;7791;47.246;9.648;2023-04-25T14:59:37;3.10;;;0.70;;
15385;SDS011;7791;47.246;9.648;2023-04-25T15:02:10;2.00;;;0.70;;
15385;SDS011;7791;47.246;9.648;2023-04-25T15:04:43;0.80;;;0.80;;
15385;SDS011;7791;47.246;9.648;2023-04-25T15:10:03;1.90;;;0.60;;
15385;SDS011;7791;47.246;9.648;2023-04-25T15:12:31;7.33;;;1.00;;
15385;SDS011;7791;47.246;9.648;2023-04-25T15:15:09;5.63;;;1.27;;
15385;SDS011;7791;47.246;9.648;2023-04-25T15:17:41;0.80;;;0.73;;
15385;SDS011;7791;47.246;9.648;2023-04-25T15:20:14;2.27;;;0.73;;
15385;SDS011;7791;47.246;9.648;2023-04-25T15:22:55;1.13;;;0.60;;
15385;SDS011;7791;47.246;9.648;2023-04-25T15:25:21;1.37;;;0.73;;
15385;SDS011;7791;47.246;9.648;2023-04-25T15:28:01;1.33;;;0.60;;
15385;SDS011;7791;47.246;9.648;2023-04-25T15:30:31;1.87;;;0.73;;
15385;SDS011;7791;47.246;9.648;2023-04-25T15:33:15;0.70;;;0.60;;
15385;SDS011;7791;47.246;9.648;2023-04-25T15:35:48;1.33;;;0.60;;
15385;SDS011;7791;47.246;9.648;2023-04-25T15:38:19;1.60;;;0.50;;
15385;SDS011;7791;47.246;9.648;2023-04-25T15:40:55;0.73;;;0.43;;
15385;SDS011;7791;47.246;9.648;2023-04-25T15:43:42;1.50;;;0.70;;
15385;SDS011;7791;47.246;9.648;2023-04-25T15:46:18;0.63;;;0.50;;
15385;SDS011;7791;47.246;9.648;2023-04-25T15:51:30;1.17;;;0.50;;
15385;SDS011;7791;47.246;9.648;2023-04-25T15:54:14;1.23;;;0.57;;
15385;SDS011;7791;47.246;9.648;2023-04-25T15:56:44;1.20;;;0.60;;
15385;SDS011;7791;47.246;9.648;2023-04-25T15:59:13;1.80;;;0.73;;
15385;SDS011;7791;47.246;9.648;2023-04-25T16:01:48;2.70;;;1.50;;
15385;SDS011;7791;47.246;9.648;2023-04-25T16:04:24;3.03;;;0.90;;
15385;SDS011;7791;47.246;9.648;2023-04-25T16:07:03;1.57;;;0.53;;
15385;SDS011;7791;47.246;9.648;2023-04-25T16:09:38;1.40;;;0.60;;
15385;SDS011;7791;47.246;9.648;2023-04-25T16:15:01;1.10;;;0.70;;
15385;SDS011;7791;47.246;9.648;2023-04-25T16:17:38;2.37;;;0.80;;
15385;SDS011;7791;47.246;9.648;2023-04-25T16:20:20;1.50;;;0.80;;
15385;SDS011;7791;47.246;9.648;2023-04-25T16:23:02;2.40;;;0.70;;
15385;SDS011;7791;47.246;9.648;2023-04-25T16:25:35;1.57;;;0.70;;
15385;SDS011;7791;47.246;9.648;2023-04-25T16:31:00;0.90;;;0.60;;
15385;SDS011;7791;47.246;9.648;2023-04-25T16:33:38;1.60;;;0.73;;
15385;SDS011;7791;47.246;9.648;2023-04-25T16:36:15;1.70;;;0.73;;
15385;SDS011;7791;47.246;9.648;2023-04-25T16:38:44;0.80;;;0.60;;
15385;SDS011;7791;47.246;9.648;2023-04-25T16:41:22;0.50;;;0.50;;
15385;SDS011;7791;47.246;9.648;2023-04-25T16:43:52;1.70;;;0.77;;
15385;SDS011;7791;47.246;9.648;2023-04-25T16:46:18;1.53;;;0.80;;
15385;SDS011;7791;47.246;9.648;2023-04-25T16:48:58;1.57;;;0.90;;
15385;SDS011;7791;47.246;9.648;2023-04-25T16:51:33;1.00;;;0.70;;
15385;SDS011;7791;47.246;9.648;2023-04-25T16:54:21;1.03;;;0.80;;
15385;SDS011;7791;47.246;9.648;2023-04-25T16:56:55;1.13;;;0.80;;
15385;SDS011;7791;47.246;9.648;2023-04-25T17:02:03;1.23;;;0.80;;
15385;SDS011;7791;47.246;9.648;2023-04-25T17:04:34;0.90;;;0.63;;
15385;SDS011;7791;47.246;9.648;2023-04-25T17:07:22;0.83;;;0.70;;
15385;SDS011;7791;47.246;9.648;2023-04-25T17:09:53;3.20;;;1.73;;
15385;SDS011;7791;47.246;9.648;2023-04-25T17:12:23;3.03;;;1.07;;
15385;SDS011;7791;47.246;9.648;2023-04-25T17:14:51;1.90;;;0.90;;
15385;SDS011;7791;47.246;9.648;2023-04-25T17:17:20;1.13;;;0.80;;